createdAt,value
2023-04-11T00:01:54.928Z,5.70
2023-04-11T00:04:25.379Z,5.53
2023-04-11T00:06:53.749Z,5.90
2023-04-11T00:09:21.855Z,6.30
2023-04-11T00:11:50.027Z,5.67
2023-04-11T00:14:18.850Z,7.20
2023-04-11T00:16:49.681Z,5.50
2023-04-11T00:19:18.023Z,7.33
2023-04-11T00:21:47.672Z,6.57
2023-04-11T00:24:15.870Z,6.83
2023-04-11T00:26:44.008Z,6.03
2023-04-11T00:29:12.120Z,6.27
2023-04-11T00:31:40.277Z,6.90
2023-04-11T00:34:08.519Z,6.33
2023-04-11T00:36:36.740Z,5.73
2023-04-11T00:39:06.959Z,6.33
2023-04-11T00:41:35.269Z,6.40
2023-04-11T00:44:03.372Z,7.63
2023-04-11T00:46:31.785Z,5.70
2023-04-11T00:49:00.534Z,5.40
2023-04-11T00:51:29.572Z,5.50
2023-04-11T00:53:57.769Z,6.07
2023-04-11T00:56:27.342Z,6.03
2023-04-11T00:58:56.589Z,5.50
2023-04-11T01:01:25.504Z,6.60
2023-04-11T01:03:53.875Z,5.77
2023-04-11T01:06:24.465Z,5.50
2023-04-11T01:08:54.418Z,7.23
2023-04-11T01:11:23.411Z,5.37
2023-04-11T01:13:53.909Z,7.53
2023-04-11T01:16:22.214Z,5.47
2023-04-11T01:18:50.642Z,5.40
2023-04-11T01:21:20.550Z,5.83
2023-04-11T01:23:52.553Z,5.23
2023-04-11T01:26:20.825Z,5.13
2023-04-11T01:28:48.993Z,5.50
2023-04-11T01:31:17.141Z,5.33
2023-04-11T01:33:45.779Z,6.60
2023-04-11T01:36:14.356Z,5.70
2023-04-11T01:38:42.877Z,4.63
2023-04-11T01:41:12.831Z,5.80
2023-04-11T01:43:41.063Z,6.50
2023-04-11T01:46:11.256Z,5.10
2023-04-11T01:48:39.551Z,5.10
2023-04-11T01:51:08.460Z,6.47
2023-04-11T01:53:36.594Z,5.43
2023-04-11T01:56:05.519Z,6.50
2023-04-11T01:58:35.023Z,10.30
2023-04-11T02:01:03.120Z,7.33
2023-04-11T02:03:31.435Z,6.20
2023-04-11T02:06:00.146Z,6.90
2023-04-11T02:08:28.292Z,6.90
2023-04-11T02:10:56.397Z,7.27
2023-04-11T02:13:24.554Z,8.43
2023-04-11T02:15:54.168Z,7.80
2023-04-11T02:18:22.654Z,8.67
2023-04-11T02:20:51.231Z,7.63
2023-04-11T02:23:19.370Z,8.30
2023-04-11T02:25:47.485Z,10.13
2023-04-11T02:28:15.590Z,9.27
2023-04-11T02:30:43.779Z,9.57
2023-04-11T02:33:13.848Z,9.43
2023-04-11T02:35:42.202Z,9.43
2023-04-11T02:38:10.457Z,8.33
2023-04-11T02:40:38.590Z,8.27
2023-04-11T02:43:06.904Z,10.37
2023-04-11T02:45:35.054Z,7.73
2023-04-11T02:48:03.216Z,9.63
2023-04-11T02:50:32.695Z,8.73
2023-04-11T02:53:00.850Z,9.80
2023-04-11T02:55:28.980Z,9.90
2023-04-11T02:57:57.118Z,8.57
2023-04-11T03:00:26.145Z,9.50
2023-04-11T03:02:56.449Z,10.20
2023-04-11T03:05:24.884Z,8.67
2023-04-11T03:07:54.347Z,8.53
2023-04-11T03:10:22.513Z,8.20
2023-04-11T03:12:50.610Z,11.43
2023-04-11T03:15:18.719Z,10.23
2023-04-11T03:17:46.903Z,9.40
2023-04-11T03:20:20.184Z,10.23
2023-04-11T03:22:48.503Z,9.80
2023-04-11T03:25:18.034Z,9.93
2023-04-11T03:27:46.139Z,9.27
2023-04-11T03:30:15.808Z,9.17
2023-04-11T03:32:44.065Z,9.47
2023-04-11T03:35:12.220Z,9.50
2023-04-11T03:37:40.492Z,10.10
2023-04-11T03:40:10.326Z,9.10
2023-04-11T03:42:39.790Z,27.73
2023-04-11T03:45:10.167Z,14.60
2023-04-11T03:47:38.504Z,18.43
2023-04-11T03:50:08.309Z,21.07
2023-04-11T03:52:36.759Z,10.20
2023-04-11T03:55:08.449Z,9.53
2023-04-11T03:57:36.601Z,10.73
2023-04-11T04:00:07.645Z,9.13
2023-04-11T04:02:36.154Z,9.00
2023-04-11T04:05:04.876Z,8.40
2023-04-11T04:07:33.026Z,9.13
2023-04-11T04:10:01.163Z,8.90
2023-04-11T04:12:29.247Z,8.67
2023-04-11T04:14:57.363Z,9.77
2023-04-11T04:17:27.125Z,9.23
2023-04-11T04:19:55.315Z,8.67
2023-04-11T04:22:23.741Z,8.27
2023-04-11T04:24:53.121Z,8.57
2023-04-11T04:27:21.211Z,8.97
2023-04-11T04:29:58.021Z,8.60
2023-04-11T04:32:32.697Z,7.87
2023-04-11T04:35:01.523Z,8.77
2023-04-11T04:37:29.936Z,9.00
2023-04-11T04:40:05.720Z,8.67
2023-04-11T04:42:34.350Z,9.03
2023-04-11T04:45:02.597Z,7.90
2023-04-11T04:47:34.704Z,10.37
2023-04-11T04:50:03.223Z,10.57
2023-04-11T04:52:32.538Z,10.37
2023-04-11T04:55:01.280Z,9.30
2023-04-11T04:57:31.931Z,8.53
2023-04-11T05:00:00.368Z,9.47
2023-04-11T05:02:28.915Z,10.03
2023-04-11T05:05:03.935Z,9.33
2023-04-11T05:07:32.158Z,10.23
2023-04-11T05:10:00.243Z,8.60
2023-04-11T05:12:28.377Z,8.37
2023-04-11T05:14:56.852Z,9.73
2023-04-11T05:17:26.225Z,8.93
2023-04-11T05:19:54.393Z,8.13
2023-04-11T05:22:24.036Z,9.77
2023-04-11T05:24:52.148Z,8.13
2023-04-11T05:27:20.479Z,8.33
2023-04-11T05:29:48.590Z,7.73
2023-04-11T05:32:16.736Z,7.50
2023-04-11T05:34:59.050Z,8.13
2023-04-11T05:37:31.170Z,8.07
2023-04-11T05:40:00.132Z,7.13
2023-04-11T05:42:28.273Z,7.17
2023-04-11T05:44:56.524Z,8.37
2023-04-11T05:47:25.110Z,6.67
2023-04-11T05:49:53.236Z,7.27
2023-04-11T05:52:21.335Z,7.03
2023-04-11T05:54:50.972Z,7.57
2023-04-11T05:57:19.093Z,6.27
2023-04-11T05:59:50.011Z,6.87
2023-04-11T06:02:18.278Z,6.50
2023-04-11T06:04:46.976Z,5.27
2023-04-11T06:07:15.820Z,5.83
2023-04-11T06:09:44.251Z,5.40
2023-04-11T06:12:13.791Z,6.67
2023-04-11T06:14:41.931Z,5.07
2023-04-11T06:17:11.470Z,5.20
2023-04-11T06:19:39.672Z,5.10
2023-04-11T06:22:07.905Z,4.90
2023-04-11T06:24:37.700Z,12.10
2023-04-11T06:27:06.672Z,5.37
2023-04-11T06:29:36.249Z,3.30
2023-04-11T06:32:04.521Z,3.40
2023-04-11T06:34:32.549Z,4.00
2023-04-11T06:37:00.728Z,3.60
2023-04-11T06:39:28.749Z,3.30
2023-04-11T06:41:56.940Z,3.50
2023-04-11T06:44:25.152Z,5.23
2023-04-11T06:46:54.993Z,3.67
2023-04-11T06:49:24.006Z,3.93
2023-04-11T06:51:52.197Z,3.20
2023-04-11T06:54:20.576Z,3.90
2023-04-11T06:56:50.632Z,3.23
2023-04-11T06:59:20.695Z,3.07
2023-04-11T07:01:50.504Z,2.43
2023-04-11T07:04:20.178Z,2.73
2023-04-11T07:06:48.449Z,4.93
2023-04-11T07:09:16.655Z,3.47
2023-04-11T07:11:45.014Z,4.43
2023-04-11T07:14:13.054Z,3.47
2023-04-11T07:16:41.339Z,3.83
2023-04-11T07:19:09.471Z,4.50
2023-04-11T07:21:39.820Z,2.50
2023-04-11T07:24:08.337Z,3.13
2023-04-11T07:26:38.633Z,3.70
2023-04-11T07:29:09.557Z,2.87
2023-04-11T07:31:38.874Z,3.10
2023-04-11T07:34:06.928Z,3.00
2023-04-11T07:36:36.029Z,4.07
2023-04-11T07:39:09.025Z,2.50
2023-04-11T07:41:37.852Z,5.07
2023-04-11T07:44:07.491Z,3.53
2023-04-11T07:46:35.604Z,1.73
2023-04-11T07:49:03.728Z,1.73
2023-04-11T07:51:33.024Z,2.17
2023-04-11T07:54:01.118Z,1.97
2023-04-11T07:56:30.587Z,2.50
2023-04-11T07:58:58.929Z,2.27
2023-04-11T08:01:27.760Z,7.23
2023-04-11T08:03:57.838Z,1.97
2023-04-11T08:06:26.575Z,2.40
2023-04-11T08:08:54.587Z,2.70
2023-04-11T08:11:22.704Z,2.73
2023-04-11T08:13:52.144Z,4.47
2023-04-11T08:16:20.494Z,2.17
2023-04-11T08:18:48.528Z,3.30
2023-04-11T08:21:16.566Z,4.53
2023-04-11T08:23:44.675Z,2.23
2023-04-11T08:26:13.249Z,4.23
2023-04-11T08:28:43.314Z,2.23
2023-04-11T08:31:13.702Z,1.87
2023-04-11T08:33:42.048Z,4.00
2023-04-11T08:36:11.521Z,2.53
2023-04-11T08:38:40.928Z,3.27
2023-04-11T08:41:09.250Z,2.57
2023-04-11T08:43:38.881Z,3.07
2023-04-11T08:46:08.789Z,5.47
2023-04-11T08:48:39.544Z,4.63
2023-04-11T08:51:08.503Z,3.13
2023-04-11T08:53:39.902Z,2.77
2023-04-11T08:56:16.028Z,4.23
2023-04-11T08:58:44.195Z,3.13
2023-04-11T09:01:32.185Z,3.77
2023-04-11T09:04:05.060Z,2.63
2023-04-11T09:06:34.825Z,3.23
2023-04-11T09:09:06.505Z,3.83
2023-04-11T09:11:53.307Z,6.30
2023-04-11T09:14:27.124Z,3.67
2023-04-11T09:16:59.946Z,3.07
2023-04-11T09:19:32.782Z,2.13
2023-04-11T09:22:04.825Z,4.10
2023-04-11T09:24:35.360Z,5.53
2023-04-11T09:27:13.353Z,3.00
2023-04-11T09:29:45.207Z,3.57
2023-04-11T09:32:32.619Z,4.47
2023-04-11T09:35:15.646Z,4.17
2023-04-11T09:37:48.920Z,6.37
2023-04-11T09:40:19.774Z,5.60
2023-04-11T09:42:49.431Z,3.60
2023-04-11T09:45:20.426Z,3.47
2023-04-11T09:47:50.144Z,6.13
2023-04-11T09:50:20.854Z,3.77
2023-04-11T09:52:49.585Z,4.57
2023-04-11T09:55:21.135Z,5.30
2023-04-11T09:57:51.347Z,2.17
2023-04-11T10:00:22.922Z,0.97
2023-04-11T10:02:53.980Z,0.90
2023-04-11T10:05:29.538Z,3.20
2023-04-11T10:08:06.322Z,2.47
2023-04-11T10:10:36.422Z,0.87
2023-04-11T10:13:24.924Z,0.97
2023-04-11T10:16:08.971Z,2.70
2023-04-11T10:18:37.254Z,3.03
2023-04-11T10:21:40.927Z,1.80
2023-04-11T10:24:11.873Z,2.17
2023-04-11T10:26:53.074Z,1.00
2023-04-11T10:29:53.060Z,1.83
2023-04-11T10:32:27.577Z,1.33
2023-04-11T10:35:31.999Z,1.00
2023-04-11T10:38:01.517Z,1.87
2023-04-11T10:40:29.837Z,4.27
2023-04-11T10:42:58.368Z,2.17
2023-04-11T10:45:28.746Z,2.30
2023-04-11T10:48:11.516Z,1.80
2023-04-11T10:50:43.087Z,2.63
2023-04-11T10:53:39.653Z,2.43
2023-04-11T10:56:08.539Z,2.97
2023-04-11T10:58:39.676Z,3.00
2023-04-11T11:01:31.528Z,2.93
2023-04-11T11:04:06.622Z,3.23
2023-04-11T11:06:46.286Z,2.83
2023-04-11T11:09:24.352Z,2.77
2023-04-11T11:12:09.348Z,3.00
2023-04-11T11:14:38.127Z,4.00
2023-04-11T11:17:06.351Z,2.63
2023-04-11T11:19:36.263Z,3.83
2023-04-11T11:22:04.851Z,3.90
2023-04-11T11:24:34.377Z,3.50
2023-04-11T11:27:02.449Z,1.40
2023-04-11T11:29:37.666Z,2.40
2023-04-11T11:32:07.495Z,2.00
2023-04-11T11:34:36.398Z,2.65
2023-04-11T11:37:05.613Z,3.07
2023-04-11T11:39:36.364Z,1.93
2023-04-11T11:42:05.050Z,2.45
2023-04-11T11:44:33.322Z,3.20
2023-04-11T11:47:08.946Z,3.10
2023-04-11T11:49:48.388Z,1.80
2023-04-11T11:52:33.490Z,3.53
2023-04-11T11:55:06.866Z,1.87
2023-04-11T11:57:38.251Z,2.90
2023-04-11T12:00:10.083Z,2.70
2023-04-11T12:02:40.229Z,4.10
2023-04-11T12:05:12.191Z,3.92
2023-04-11T12:07:41.416Z,2.03
2023-04-11T12:10:16.341Z,2.60
2023-04-11T12:12:53.432Z,3.08
2023-04-11T12:15:24.505Z,4.57
2023-04-11T12:17:54.892Z,4.03
2023-04-11T12:20:28.136Z,2.17
2023-04-11T12:22:56.750Z,3.03
2023-04-11T12:25:26.576Z,3.53
2023-04-11T12:27:54.808Z,3.67
2023-04-11T12:30:23.087Z,3.65
2023-04-11T12:32:51.310Z,2.45
2023-04-11T12:35:19.659Z,3.33
2023-04-11T12:37:47.757Z,2.30
2023-04-11T12:40:16.038Z,2.95
2023-04-11T12:42:56.390Z,2.55
2023-04-11T12:45:26.280Z,4.93
2023-04-11T12:47:54.690Z,2.45
2023-04-11T12:50:24.404Z,2.17
2023-04-11T12:52:52.867Z,5.63
2023-04-11T12:55:21.409Z,3.40
2023-04-11T12:57:51.151Z,2.83
2023-04-11T13:00:20.264Z,3.57
2023-04-11T13:02:48.787Z,2.87
2023-04-11T13:05:18.038Z,4.53
2023-04-11T13:07:47.040Z,2.65
2023-04-11T13:10:16.543Z,3.63
2023-04-11T13:12:45.985Z,2.70
2023-04-11T13:15:17.347Z,3.22
2023-04-11T13:17:45.758Z,2.80
2023-04-11T13:20:14.688Z,2.53
2023-04-11T13:22:44.260Z,2.53
2023-04-11T13:25:13.110Z,3.22
2023-04-11T13:27:43.351Z,2.40
2023-04-11T13:30:12.617Z,3.63
2023-04-11T13:32:42.200Z,4.23
2023-04-11T13:35:11.223Z,3.27
2023-04-11T13:37:39.506Z,3.30
2023-04-11T13:40:12.596Z,3.77
2023-04-11T13:42:40.828Z,4.57
2023-04-11T13:45:10.204Z,4.00
2023-04-11T13:47:39.207Z,4.13
2023-04-11T13:50:10.230Z,4.23
2023-04-11T13:52:38.775Z,4.60
2023-04-11T13:55:07.873Z,5.77
2023-04-11T13:57:35.981Z,2.53
2023-04-11T14:00:11.796Z,3.77
2023-04-11T14:02:41.457Z,2.30
2023-04-11T14:05:13.142Z,3.67
2023-04-11T14:07:41.504Z,4.27
2023-04-11T14:10:10.695Z,3.53
2023-04-11T14:12:39.291Z,5.37
2023-04-11T14:15:09.532Z,4.30
2023-04-11T14:17:37.600Z,3.57
2023-04-11T14:20:08.743Z,3.77
2023-04-11T14:22:39.460Z,3.77
2023-04-11T14:25:11.045Z,3.63
2023-04-11T14:27:41.162Z,3.47
2023-04-11T14:30:12.072Z,3.20
2023-04-11T14:32:40.789Z,1.65
2023-04-11T14:35:10.311Z,1.90
2023-04-11T14:37:39.699Z,1.95
2023-04-11T14:40:11.074Z,2.00
2023-04-11T14:42:39.521Z,2.00
2023-04-11T14:45:09.029Z,2.33
2023-04-11T14:47:37.567Z,2.00
2023-04-11T14:50:06.632Z,1.70
2023-04-11T14:52:35.096Z,2.33
2023-04-11T14:55:04.981Z,2.97
2023-04-11T14:57:47.730Z,3.13
2023-04-11T15:00:20.849Z,3.90
2023-04-11T15:02:53.159Z,2.03
2023-04-11T15:05:23.150Z,1.60
2023-04-11T15:07:54.093Z,2.27
2023-04-11T15:10:26.108Z,1.77
2023-04-11T15:12:54.940Z,2.27
2023-04-11T15:15:23.608Z,2.40
2023-04-11T15:18:23.372Z,2.53
2023-04-11T15:20:52.376Z,3.60
2023-04-11T15:23:21.990Z,2.30
2023-04-11T15:25:56.682Z,2.00
2023-04-11T15:28:26.529Z,2.40
2023-04-11T15:30:55.446Z,1.87
2023-04-11T15:33:24.592Z,2.87
2023-04-11T15:35:54.442Z,2.17
2023-04-11T15:38:23.179Z,2.30
2023-04-11T15:40:52.236Z,2.37
2023-04-11T15:43:22.712Z,3.13
2023-04-11T15:45:52.221Z,1.80
2023-04-11T15:48:20.578Z,3.40
2023-04-11T15:50:48.952Z,2.33
2023-04-11T15:53:17.020Z,2.30
2023-04-11T15:55:52.863Z,2.80
2023-04-11T15:58:22.617Z,1.63
2023-04-11T16:00:51.203Z,1.53
2023-04-11T16:03:19.464Z,2.00
2023-04-11T16:05:50.788Z,2.27
2023-04-11T16:08:18.835Z,1.47
2023-04-11T16:10:50.989Z,2.63
2023-04-11T16:13:19.042Z,1.83
2023-04-11T16:15:48.500Z,1.83
2023-04-11T16:18:17.115Z,2.70
2023-04-11T16:20:45.188Z,2.00
2023-04-11T16:23:13.280Z,2.67
2023-04-11T16:25:41.508Z,2.90
2023-04-11T16:28:09.633Z,1.30
2023-04-11T16:30:40.565Z,2.60
2023-04-11T16:33:12.924Z,2.50
2023-04-11T16:35:41.083Z,1.40
2023-04-11T16:38:09.181Z,2.87
2023-04-11T16:40:37.862Z,1.97
2023-04-11T16:43:06.088Z,1.67
2023-04-11T16:45:40.532Z,3.30
2023-04-11T16:48:10.448Z,1.20
2023-04-11T16:50:38.694Z,1.10
2023-04-11T16:53:06.845Z,2.47
2023-04-11T16:55:35.172Z,5.63
2023-04-11T16:58:03.556Z,2.90
2023-04-11T17:00:31.642Z,4.13
2023-04-11T17:02:59.986Z,3.03
2023-04-11T17:05:30.698Z,2.77
2023-04-11T17:07:58.786Z,3.37
2023-04-11T17:10:27.094Z,4.17
2023-04-11T17:12:55.391Z,4.33
2023-04-11T17:15:23.987Z,4.10
2023-04-11T17:17:52.104Z,3.07
2023-04-11T17:20:20.529Z,4.23
2023-04-11T17:22:50.065Z,3.17
2023-04-11T17:25:18.207Z,5.13
2023-04-11T17:27:49.021Z,2.70
2023-04-11T17:30:17.614Z,2.80
2023-04-11T17:32:48.810Z,2.70
2023-04-11T17:35:16.927Z,3.63
2023-04-11T17:37:44.997Z,3.33
2023-04-11T17:40:16.965Z,2.73
2023-04-11T17:42:45.900Z,3.37
2023-04-11T17:45:18.272Z,2.37
2023-04-11T17:47:47.894Z,2.23
2023-04-11T17:50:17.170Z,3.90
2023-04-11T17:52:48.324Z,3.37
2023-04-11T17:55:20.172Z,1.87
2023-04-11T17:57:49.714Z,2.07
2023-04-11T18:00:22.801Z,3.23
2023-04-11T18:02:54.464Z,5.00
2023-04-11T18:05:26.113Z,3.70
2023-04-11T18:07:57.336Z,6.30
2023-04-11T18:10:30.122Z,2.40
2023-04-11T18:12:59.862Z,4.73
2023-04-11T18:15:28.248Z,3.27
2023-04-11T18:18:03.925Z,4.90
2023-04-11T18:20:33.422Z,4.23
2023-04-11T18:23:01.712Z,1.80
2023-04-11T18:25:31.796Z,3.90
2023-04-11T18:27:59.975Z,2.57
2023-04-11T18:30:30.448Z,2.57
2023-04-11T18:32:58.581Z,2.67
2023-04-11T18:35:27.891Z,2.60
2023-04-11T18:37:56.500Z,3.60
2023-04-11T18:40:25.060Z,2.63
2023-04-11T18:42:56.116Z,4.57
2023-04-11T18:45:27.126Z,2.93
2023-04-11T18:47:55.969Z,7.03
2023-04-11T18:50:24.462Z,3.30
2023-04-11T18:52:56.098Z,3.40
2023-04-11T18:55:25.548Z,5.07
2023-04-11T18:57:58.169Z,5.13
2023-04-11T19:00:27.547Z,4.10
2023-04-11T19:02:56.314Z,3.83
2023-04-11T19:05:25.851Z,2.70
2023-04-11T19:07:54.075Z,3.67
2023-04-11T19:10:22.358Z,5.90
2023-04-11T19:12:50.445Z,3.57
2023-04-11T19:15:20.149Z,3.17
2023-04-11T19:17:48.360Z,3.13
2023-04-11T19:20:17.652Z,4.13
2023-04-11T19:22:46.505Z,3.73
2023-04-11T19:25:15.732Z,4.27
2023-04-11T19:27:44.232Z,3.47
2023-04-11T19:30:14.357Z,3.97
2023-04-11T19:32:45.919Z,4.20
2023-04-11T19:35:14.423Z,3.30
2023-04-11T19:37:42.569Z,3.90
2023-04-11T19:40:12.252Z,3.03
2023-04-11T19:42:41.515Z,3.53
2023-04-11T19:45:11.748Z,3.53
2023-04-11T19:47:41.305Z,3.40
2023-04-11T19:50:13.719Z,3.67
2023-04-11T19:52:43.319Z,4.20
2023-04-11T19:55:12.769Z,2.87
2023-04-11T19:57:43.291Z,3.67
2023-04-11T20:00:13.816Z,3.33
2023-04-11T20:02:45.926Z,3.90
2023-04-11T20:05:19.042Z,4.43
2023-04-11T20:07:47.973Z,3.93
2023-04-11T20:10:17.402Z,3.67
2023-04-11T20:12:46.039Z,4.60
2023-04-11T20:15:14.755Z,4.07
2023-04-11T20:17:45.279Z,3.43
2023-04-11T20:20:20.184Z,6.07
2023-04-11T20:22:48.985Z,4.13
2023-04-11T20:25:17.114Z,4.00
2023-04-11T20:27:45.289Z,3.97
2023-04-11T20:30:16.328Z,5.07
2023-04-11T20:32:45.620Z,4.87
2023-04-11T20:35:13.847Z,4.70
2023-04-11T20:37:44.337Z,5.17
2023-04-11T20:40:14.162Z,4.30
2023-04-11T20:42:45.380Z,4.80
2023-04-11T20:45:16.201Z,7.50
2023-04-11T20:47:47.516Z,5.43
2023-04-11T20:50:19.024Z,7.30
2023-04-11T20:52:52.342Z,4.40
2023-04-11T20:55:21.668Z,3.40
2023-04-11T20:57:49.836Z,4.40
2023-04-11T21:00:19.897Z,3.73
2023-04-11T21:02:50.394Z,4.07
2023-04-11T21:05:22.466Z,3.37
2023-04-11T21:07:54.120Z,5.70
2023-04-11T21:10:22.407Z,3.63
2023-04-11T21:12:53.611Z,3.37
2023-04-11T21:15:22.561Z,3.27
2023-04-11T21:17:52.047Z,3.10
2023-04-11T21:20:20.987Z,4.00
2023-04-11T21:22:53.561Z,3.03
2023-04-11T21:25:22.823Z,4.83
2023-04-11T21:27:51.205Z,4.63
2023-04-11T21:30:19.555Z,3.57
2023-04-11T21:32:47.770Z,3.60
2023-04-11T21:35:16.089Z,4.47
2023-04-11T21:37:44.759Z,3.87
2023-04-11T21:40:15.580Z,4.10
2023-04-11T21:42:43.731Z,3.77
2023-04-11T21:45:11.988Z,3.17
2023-04-11T21:47:40.170Z,4.60
2023-04-11T21:50:10.361Z,5.27
2023-04-11T21:52:38.554Z,4.67
2023-04-11T21:55:09.387Z,5.03
2023-04-11T21:57:38.973Z,4.50
2023-04-11T22:00:10.973Z,3.87
2023-04-11T22:02:39.721Z,4.80
2023-04-11T22:05:09.866Z,4.43
2023-04-11T22:07:47.204Z,3.97
2023-04-11T22:10:22.055Z,2.83
2023-04-11T22:12:53.814Z,4.57
2023-04-11T22:15:23.785Z,3.90
2023-04-11T22:17:56.190Z,4.50
2023-04-11T22:20:24.483Z,5.20
2023-04-11T22:22:52.624Z,3.80
2023-04-11T22:25:22.156Z,4.83
2023-04-11T22:27:54.292Z,6.00
2023-04-11T22:30:24.240Z,3.80
2023-04-11T22:32:54.005Z,5.03
2023-04-11T22:35:23.014Z,4.63
2023-04-11T22:37:51.621Z,3.77
2023-04-11T22:40:22.206Z,3.33
2023-04-11T22:42:52.804Z,4.27
2023-04-11T22:45:22.591Z,7.30
2023-04-11T22:47:54.064Z,4.37
2023-04-11T22:50:22.395Z,4.83
2023-04-11T22:52:50.558Z,4.37
2023-04-11T22:55:21.025Z,4.93
2023-04-11T22:57:49.282Z,4.73
2023-04-11T23:00:21.847Z,5.23
2023-04-11T23:02:50.887Z,5.00
2023-04-11T23:05:20.669Z,4.37
2023-04-11T23:07:48.950Z,4.97
2023-04-11T23:10:19.187Z,5.57
2023-04-11T23:12:49.162Z,4.33
2023-04-11T23:15:19.262Z,4.57
2023-04-11T23:17:47.475Z,6.50
2023-04-11T23:20:17.479Z,4.10
2023-04-11T23:22:46.234Z,4.90
2023-04-11T23:25:15.279Z,4.10
2023-04-11T23:27:44.699Z,3.97
2023-04-11T23:30:15.019Z,4.97
2023-04-11T23:32:44.812Z,5.00
2023-04-11T23:35:12.963Z,5.37
2023-04-11T23:37:41.262Z,3.87
2023-04-11T23:40:13.896Z,6.67
2023-04-11T23:42:42.970Z,4.47
2023-04-11T23:45:12.680Z,3.93
2023-04-11T23:47:41.142Z,5.17
2023-04-11T23:50:12.129Z,4.13
2023-04-11T23:52:40.545Z,3.80
2023-04-11T23:55:09.965Z,3.70
2023-04-11T23:57:38.141Z,4.67
